createdAt,value
2023-01-01T00:01:42.958Z,100087.19
2023-01-01T00:04:13.126Z,100086.28
2023-01-01T00:06:40.315Z,100081.84
2023-01-01T00:09:27.286Z,100080.91
2023-01-01T00:11:54.299Z,100081.06
2023-01-01T00:14:21.590Z,100087.31
2023-01-01T00:16:48.686Z,100093.19
2023-01-01T00:19:15.656Z,100095.72
2023-01-01T00:21:42.805Z,100091.47
2023-01-01T00:24:11.321Z,100090.66
2023-01-01T00:26:38.290Z,100090.66
2023-01-01T00:29:05.696Z,100099.22
2023-01-01T00:31:32.998Z,100096.91
2023-01-01T00:34:00.116Z,100100.38
2023-01-01T00:36:28.457Z,100092.91
2023-01-01T00:38:56.170Z,100099.69
2023-01-01T00:41:24.591Z,100091.03
2023-01-01T00:43:51.791Z,100091.03
2023-01-01T00:46:19.056Z,100098.50
2023-01-01T00:48:46.103Z,100090.91
2023-01-01T00:51:13.803Z,100093.56
2023-01-01T00:53:41.028Z,100100.50
2023-01-01T00:56:08.274Z,100100.75
2023-01-01T00:58:36.617Z,100101.53
2023-01-01T01:01:04.193Z,100101.81
2023-01-01T01:03:31.420Z,100094.31
2023-01-01T01:06:00.637Z,100091.31
2023-01-01T01:08:30.936Z,100088.50
2023-01-01T01:11:05.070Z,100092.69
2023-01-01T01:13:32.199Z,100089.16
2023-01-01T01:16:00.804Z,100088.81
2023-01-01T01:18:27.926Z,100094.94
2023-01-01T01:20:55.078Z,100093.44
2023-01-01T01:23:22.021Z,100091.84
2023-01-01T01:25:49.042Z,100096.09
2023-01-01T01:28:15.997Z,100095.28
2023-01-01T01:30:43.066Z,100095.41
2023-01-01T01:33:11.472Z,100088.19
2023-01-01T01:35:38.451Z,100092.69
2023-01-01T01:38:05.432Z,100105.59
2023-01-01T01:40:33.748Z,100094.66
2023-01-01T01:43:00.719Z,100095.78
2023-01-01T01:45:33.172Z,100095.00
2023-01-01T01:48:01.242Z,100102.16
2023-01-01T01:50:33.967Z,100107.91
2023-01-01T01:53:07.023Z,100104.44
2023-01-01T01:55:36.907Z,100091.09
2023-01-01T01:58:05.719Z,100098.94
2023-01-01T02:00:32.708Z,100097.47
2023-01-01T02:03:04.368Z,100092.50
2023-01-01T02:05:34.274Z,100086.75
2023-01-01T02:08:02.885Z,100087.78
2023-01-01T02:10:29.979Z,100085.38
2023-01-01T02:12:57.066Z,100085.50
2023-01-01T02:15:28.352Z,100084.78
2023-01-01T02:18:01.113Z,100082.03
2023-01-01T02:20:49.282Z,100077.41
2023-01-01T02:23:29.727Z,100073.41
2023-01-01T02:26:16.595Z,100069.50
2023-01-01T02:28:52.135Z,100076.16
2023-01-01T02:31:24.744Z,100082.06
2023-01-01T02:33:55.299Z,100074.09
2023-01-01T02:36:24.433Z,100084.78
2023-01-01T02:38:54.796Z,100077.06
2023-01-01T02:41:26.416Z,100078.69
2023-01-01T02:48:50.070Z,100067.75
2023-01-01T02:51:26.408Z,100067.75
2023-01-01T02:54:00.273Z,100066.16
2023-01-01T02:56:36.295Z,100065.69
2023-01-01T02:59:35.859Z,100067.78
2023-01-01T03:02:11.549Z,100061.34
2023-01-01T03:04:49.908Z,100063.88
2023-01-01T03:07:24.293Z,100063.28
2023-01-01T03:09:58.312Z,100065.28
2023-01-01T03:12:43.567Z,100057.78
2023-01-01T03:15:20.464Z,100056.97
2023-01-01T03:17:55.303Z,100055.38
2023-01-01T03:20:25.823Z,100054.91
2023-01-01T03:22:55.773Z,100057.00
2023-01-01T03:25:25.275Z,100052.97
2023-01-01T03:27:57.408Z,100053.09
2023-01-01T03:30:26.352Z,100055.97
2023-01-01T03:33:07.977Z,100056.09
2023-01-01T03:35:40.982Z,100058.03
2023-01-01T03:38:12.457Z,100062.53
2023-01-01T03:40:40.443Z,100063.47
2023-01-01T03:43:14.055Z,100063.47
2023-01-01T03:45:45.628Z,100067.81
2023-01-01T03:48:12.719Z,100073.69
2023-01-01T03:50:50.243Z,100075.88
2023-01-01T03:53:25.759Z,100073.34
2023-01-01T03:56:01.413Z,100070.25
2023-01-01T03:58:35.396Z,100081.84
2023-01-01T04:01:09.674Z,100079.56
2023-01-01T04:03:38.890Z,100086.47
2023-01-01T04:06:06.683Z,100084.06
2023-01-01T04:08:34.860Z,100095.78
2023-01-01T04:11:27.683Z,100090.63
2023-01-01T04:13:54.632Z,100083.72
2023-01-01T04:16:23.080Z,100102.13
2023-01-01T04:18:50.659Z,100098.53
2023-01-01T04:21:17.654Z,100100.19
2023-01-01T04:23:44.583Z,100090.16
2023-01-01T04:26:13.859Z,100092.56
2023-01-01T04:28:41.518Z,100104.75
2023-01-01T04:31:08.942Z,100105.00
2023-01-01T04:33:37.897Z,100096.72
2023-01-01T04:36:06.242Z,100102.69
2023-01-01T04:38:34.144Z,100104.44
2023-01-01T04:41:02.283Z,100099.38
2023-01-01T04:43:30.066Z,100110.28
2023-01-01T04:45:57.521Z,100108.44
2023-01-01T04:48:25.399Z,100115.22
2023-01-01T04:50:58.556Z,100112.69
2023-01-01T04:53:26.119Z,100105.09
2023-01-01T04:55:53.087Z,100102.78
2023-01-01T04:58:20.005Z,100098.66
2023-01-01T05:00:49.651Z,100101.41
2023-01-01T05:03:16.799Z,100099.81
2023-01-01T05:05:49.438Z,100093.94
2023-01-01T05:08:19.565Z,100096.56
2023-01-01T05:10:46.500Z,100102.69
2023-01-01T05:13:13.422Z,100097.06
2023-01-01T05:15:40.428Z,100109.00
2023-01-01T05:18:07.337Z,100118.19
2023-01-01T05:20:35.090Z,100121.66
2023-01-01T05:23:02.004Z,100123.38
2023-01-01T05:25:30.320Z,100114.41
2023-01-01T05:27:57.213Z,100115.31
2023-01-01T05:30:24.138Z,100110.38
2023-01-01T05:32:51.110Z,100113.34
2023-01-01T05:35:21.676Z,100112.56
2023-01-01T05:37:53.456Z,100106.69
2023-01-01T05:40:22.711Z,100112.78
2023-01-01T05:42:51.103Z,100115.44
2023-01-01T05:45:18.035Z,100107.84
2023-01-01T05:47:44.981Z,100105.53
2023-01-01T05:52:37.743Z,100101.38
2023-01-01T05:55:05.321Z,100102.06
2023-01-01T05:57:32.258Z,100098.97
2023-01-01T06:00:03.763Z,100103.00
2023-01-01T06:02:33.606Z,100106.34
2023-01-01T06:05:00.605Z,100114.81
2023-01-01T06:07:27.526Z,100109.53
2023-01-01T06:09:54.466Z,100113.56
2023-01-01T06:12:21.499Z,100119.00
2023-01-01T06:14:48.558Z,100122.94
2023-01-01T06:17:16.845Z,100118.22
2023-01-01T06:19:43.826Z,100116.56
2023-01-01T06:22:10.798Z,100110.91
2023-01-01T06:24:39.287Z,100124.53
2023-01-01T06:27:07.242Z,100122.78
2023-01-01T06:29:34.548Z,100116.34
2023-01-01T06:32:01.588Z,100130.75
2023-01-01T06:34:29.871Z,100125.44
2023-01-01T06:37:01.364Z,100119.56
2023-01-01T06:39:31.746Z,100118.56
2023-01-01T06:41:58.652Z,100119.78
2023-01-01T06:44:25.966Z,100126.84
2023-01-01T06:46:52.874Z,100118.81
2023-01-01T06:49:19.898Z,100128.66
2023-01-01T06:51:48.194Z,100130.28
2023-01-01T06:54:15.344Z,100130.44
2023-01-01T06:56:42.256Z,100133.97
2023-01-01T06:59:09.244Z,100135.78
2023-01-01T07:01:44.139Z,100139.31
2023-01-01T07:04:14.263Z,100142.88
2023-01-01T07:06:42.498Z,100138.41
2023-01-01T07:09:10.882Z,100141.31
2023-01-01T07:11:38.267Z,100133.78
2023-01-01T07:14:05.204Z,100142.25
2023-01-01T07:16:32.463Z,100145.63
2023-01-01T07:19:00.947Z,100136.66
2023-01-01T07:21:32.819Z,100138.47
2023-01-01T07:24:01.433Z,100134.78
2023-01-01T07:26:32.345Z,100137.03
2023-01-01T07:29:06.968Z,100142.03
2023-01-01T07:31:39.504Z,100143.78
2023-01-01T07:34:07.188Z,100141.69
2023-01-01T07:36:34.520Z,100152.25
2023-01-01T07:39:04.645Z,100163.25
2023-01-01T07:41:33.045Z,100148.91
2023-01-01T07:44:00.494Z,100155.75
2023-01-01T07:46:28.017Z,100149.09
2023-01-01T07:48:54.974Z,100158.31
2023-01-01T07:51:22.245Z,100161.97
2023-01-01T07:53:49.338Z,100157.88
2023-01-01T07:56:16.317Z,100158.25
2023-01-01T07:58:44.670Z,100164.97
2023-01-01T08:01:12.607Z,100156.88
2023-01-01T08:03:39.679Z,100155.69
2023-01-01T08:06:09.126Z,100157.22
2023-01-01T08:08:36.233Z,100162.63
2023-01-01T08:11:04.203Z,100160.91
2023-01-01T08:13:31.322Z,100158.47
2023-01-01T08:16:00.045Z,100163.56
2023-01-01T08:18:27.183Z,100160.34
2023-01-01T08:20:54.403Z,100153.84
2023-01-01T08:23:21.601Z,100161.63
2023-01-01T08:25:48.565Z,100156.28
2023-01-01T08:28:15.572Z,100160.78
2023-01-01T08:30:42.774Z,100166.84
2023-01-01T08:33:11.052Z,100163.53
2023-01-01T08:35:40.424Z,100157.88
2023-01-01T08:38:07.397Z,100157.09
2023-01-01T08:40:37.609Z,100157.50
2023-01-01T08:43:04.685Z,100158.75
2023-01-01T08:45:31.680Z,100160.19
2023-01-01T08:47:58.721Z,100156.44
2023-01-01T08:50:27.827Z,100154.84
2023-01-01T08:52:59.163Z,100159.22
2023-01-01T08:55:26.311Z,100157.19
2023-01-01T08:57:53.404Z,100148.53
2023-01-01T09:00:20.505Z,100147.69
2023-01-01T09:02:47.772Z,100144.81
2023-01-01T09:05:14.896Z,100143.94
2023-01-01T09:07:46.232Z,100141.28
2023-01-01T09:10:13.872Z,100141.47
2023-01-01T09:12:40.819Z,100136.91
2023-01-01T09:15:14.578Z,100136.69
2023-01-01T09:17:41.689Z,100128.53
2023-01-01T09:20:09.423Z,100115.69
2023-01-01T09:22:36.398Z,100115.69
2023-01-01T09:25:06.609Z,100114.03
2023-01-01T09:27:33.769Z,100117.09
2023-01-01T09:30:00.706Z,100114.41
2023-01-01T09:32:29.917Z,100106.69
2023-01-01T09:34:57.573Z,100099.22
2023-01-01T09:37:24.616Z,100095.53
2023-01-01T09:39:51.644Z,100100.94
2023-01-01T09:42:31.082Z,100091.81
2023-01-01T09:45:21.120Z,100089.31
2023-01-01T09:47:54.345Z,100087.50
2023-01-01T09:50:24.144Z,100089.06
2023-01-01T09:52:54.238Z,100087.16
2023-01-01T09:55:28.220Z,100085.78
2023-01-01T09:57:57.372Z,100082.75
2023-01-01T10:00:25.272Z,100085.72
2023-01-01T10:03:25.673Z,100086.88
2023-01-01T10:06:01.198Z,100079.38
2023-01-01T10:08:41.229Z,100076.97
2023-01-01T10:11:17.779Z,100062.50
2023-01-01T10:13:46.796Z,100055.47
2023-01-01T10:16:25.265Z,100055.38
2023-01-01T10:18:55.899Z,100054.69
2023-01-01T10:21:26.840Z,100052.22
2023-01-01T10:23:57.746Z,100054.56
2023-01-01T10:26:29.631Z,100050.03
2023-01-01T10:29:02.409Z,100056.56
2023-01-01T10:31:34.612Z,100059.84
2023-01-01T10:34:19.095Z,100047.69
2023-01-01T10:36:53.033Z,100048.81
2023-01-01T10:39:20.370Z,100045.06
2023-01-01T10:41:48.131Z,100036.16
2023-01-01T10:44:27.328Z,100042.03
2023-01-01T10:46:57.885Z,100044.94
2023-01-01T10:49:25.109Z,100041.81
2023-01-01T10:51:53.770Z,100043.50
2023-01-01T10:54:32.094Z,100036.25
2023-01-01T10:56:59.390Z,100025.81
2023-01-01T10:59:36.512Z,100028.59
2023-01-01T11:02:19.233Z,100026.66
2023-01-01T11:04:46.776Z,100022.75
2023-01-01T11:07:21.440Z,100030.88
2023-01-01T11:10:03.566Z,100026.31
2023-01-01T11:13:05.872Z,100024.03
2023-01-01T11:15:31.147Z,100020.38
2023-01-01T11:18:04.279Z,100018.63
2023-01-01T11:20:33.185Z,100023.69
2023-01-01T11:23:29.005Z,100022.06
2023-01-01T11:26:05.954Z,100013.81
2023-01-01T11:28:35.029Z,100026.91
2023-01-01T11:31:14.160Z,100016.13
2023-01-01T11:33:45.821Z,100015.03
2023-01-01T11:36:23.940Z,100011.91
2023-01-01T11:39:06.618Z,100012.72
2023-01-01T11:41:45.660Z,100005.59
2023-01-01T11:44:22.443Z,100007.03
2023-01-01T11:46:50.998Z,100002.72
2023-01-01T11:49:23.151Z,100005.41
2023-01-01T11:51:50.103Z,99990.94
2023-01-01T11:54:32.807Z,99996.09
2023-01-01T11:57:07.423Z,99985.66
2023-01-01T11:59:44.394Z,99978.50
2023-01-01T12:02:18.661Z,99985.03
2023-01-01T12:04:50.048Z,99987.81
2023-01-01T12:07:22.096Z,99982.84
2023-01-01T12:09:54.610Z,99984.31
2023-01-01T12:12:28.330Z,99986.84
2023-01-01T12:15:00.816Z,99982.88
2023-01-01T12:17:34.669Z,99973.63
2023-01-01T12:20:04.892Z,99980.78
2023-01-01T12:22:31.947Z,99972.81
2023-01-01T12:24:59.828Z,99976.00
2023-01-01T12:27:38.415Z,99968.41
2023-01-01T12:30:21.129Z,99967.44
2023-01-01T12:33:08.244Z,99969.25
2023-01-01T12:35:52.503Z,99966.16
2023-01-01T12:38:33.435Z,99970.59
2023-01-01T12:41:08.869Z,99960.78
2023-01-01T12:43:43.794Z,99966.34
2023-01-01T12:46:20.766Z,99969.19
2023-01-01T12:49:12.018Z,99962.38
2023-01-01T12:51:47.362Z,99965.38
2023-01-01T12:54:52.988Z,99968.94
2023-01-01T12:57:27.919Z,99958.19
2023-01-01T12:59:55.637Z,99955.09
2023-01-01T13:02:25.342Z,99961.13
2023-01-01T13:05:00.204Z,99959.13
2023-01-01T13:07:31.262Z,99964.03
2023-01-01T13:10:04.698Z,99960.84
2023-01-01T13:12:33.056Z,99966.94
2023-01-01T13:15:01.257Z,99968.78
2023-01-01T13:17:30.156Z,99966.81
2023-01-01T13:20:00.506Z,99963.78
2023-01-01T13:22:39.221Z,99972.03
2023-01-01T13:25:18.555Z,99966.56
2023-01-01T13:28:13.145Z,99962.84
2023-01-01T13:30:49.737Z,99970.75
2023-01-01T13:33:32.550Z,99972.25
2023-01-01T13:36:39.270Z,99967.84
2023-01-01T13:39:08.469Z,99974.06
2023-01-01T13:41:41.073Z,99969.81
2023-01-01T13:44:17.528Z,99975.41
2023-01-01T13:46:54.640Z,99973.53
2023-01-01T13:49:34.784Z,99978.00
2023-01-01T13:52:23.209Z,99966.50
2023-01-01T13:55:17.246Z,99973.25
2023-01-01T13:58:11.810Z,99967.38
2023-01-01T14:00:49.883Z,99971.47
2023-01-01T14:03:18.869Z,99972.53
2023-01-01T14:05:49.937Z,99973.31
2023-01-01T14:08:31.174Z,99971.03
2023-01-01T14:11:03.213Z,99969.91
2023-01-01T14:13:32.576Z,99974.13
2023-01-01T14:16:02.030Z,99968.91
2023-01-01T14:18:34.191Z,99974.09
2023-01-01T14:21:01.412Z,99973.50
2023-01-01T14:23:32.110Z,99975.75
2023-01-01T14:26:02.456Z,99975.94
2023-01-01T14:28:31.859Z,99973.06
2023-01-01T14:31:05.574Z,99971.44
2023-01-01T14:33:38.146Z,99974.91
2023-01-01T14:36:14.443Z,99976.81
2023-01-01T14:38:45.609Z,99972.25
2023-01-01T14:41:18.485Z,99979.31
2023-01-01T14:43:47.817Z,99979.88
2023-01-01T14:46:17.936Z,99971.50
2023-01-01T14:48:48.126Z,99981.44
2023-01-01T14:51:18.823Z,99979.56
2023-01-01T14:53:50.516Z,99974.50
2023-01-01T14:56:30.676Z,99970.06
2023-01-01T14:59:06.664Z,99986.09
2023-01-01T15:01:33.850Z,99964.28
2023-01-01T15:04:02.607Z,99978.84
2023-01-01T15:06:30.471Z,99976.94
2023-01-01T15:08:58.031Z,99982.09
2023-01-01T15:11:29.028Z,99980.13
2023-01-01T15:14:00.363Z,99982.94
2023-01-01T15:16:33.243Z,99976.97
2023-01-01T15:19:17.874Z,99983.94
2023-01-01T15:21:46.185Z,99984.34
2023-01-01T15:24:15.140Z,99984.75
2023-01-01T15:26:44.309Z,99979.94
2023-01-01T15:29:21.373Z,99975.97
2023-01-01T15:31:53.685Z,99979.72
2023-01-01T15:34:24.515Z,99983.31
2023-01-01T15:36:53.516Z,99987.06
2023-01-01T15:39:21.167Z,99982.66
2023-01-01T15:41:49.885Z,99991.75
2023-01-01T15:44:23.540Z,99992.75
2023-01-01T15:46:53.605Z,99994.50
2023-01-01T15:49:26.048Z,99995.28
2023-01-01T15:51:55.659Z,99993.84
2023-01-01T15:54:22.870Z,99985.47
2023-01-01T15:56:50.058Z,99991.38
2023-01-01T15:59:24.945Z,99991.53
2023-01-01T16:01:52.639Z,99986.34
2023-01-01T16:04:28.297Z,99995.44
2023-01-01T16:06:57.658Z,99997.19
2023-01-01T16:09:24.758Z,99993.56
2023-01-01T16:11:52.639Z,99995.31
2023-01-01T16:14:21.225Z,99994.25
2023-01-01T16:16:52.930Z,99992.97
2023-01-01T16:19:21.509Z,99995.06
2023-01-01T16:21:48.551Z,100001.09
2023-01-01T16:24:17.288Z,99997.28
2023-01-01T16:26:45.147Z,100001.31
2023-01-01T16:29:12.457Z,100001.97
2023-01-01T16:31:41.132Z,100000.72
2023-01-01T16:34:11.791Z,100009.03
2023-01-01T16:36:38.798Z,100014.25
2023-01-01T16:39:05.731Z,100011.31
2023-01-01T16:41:32.664Z,100009.56
2023-01-01T16:43:59.674Z,100015.00
2023-01-01T16:46:28.209Z,100014.03
2023-01-01T16:48:57.045Z,100019.78
2023-01-01T16:51:26.976Z,100024.91
2023-01-01T16:53:54.119Z,100023.41
2023-01-01T16:56:21.493Z,100026.38
2023-01-01T16:58:50.438Z,100026.47
2023-01-01T17:01:19.420Z,100021.72
2023-01-01T17:03:46.564Z,100027.53
2023-01-01T17:06:15.703Z,100031.78
2023-01-01T17:08:42.710Z,100022.56
2023-01-01T17:11:14.363Z,100026.56
2023-01-01T17:13:41.608Z,100033.53
2023-01-01T17:16:09.095Z,100030.06
2023-01-01T17:21:25.341Z,100036.09
2023-01-01T17:23:53.398Z,100029.53
2023-01-01T17:26:23.007Z,100042.88
2023-01-01T17:28:56.503Z,100046.75
2023-01-01T17:31:28.628Z,100047.25
2023-01-01T17:33:55.945Z,100053.50
2023-01-01T17:36:24.513Z,100055.00
2023-01-01T17:38:51.534Z,100047.63
2023-01-01T17:41:18.971Z,100047.34
2023-01-01T17:43:48.287Z,100046.41
2023-01-01T17:46:17.418Z,100046.25
2023-01-01T17:48:45.358Z,100049.31
2023-01-01T17:51:13.219Z,100048.38
2023-01-01T17:53:41.846Z,100053.25
2023-01-01T17:56:12.400Z,100051.50
2023-01-01T17:58:40.021Z,100048.16
2023-01-01T18:01:22.360Z,100049.91
2023-01-01T18:03:50.723Z,100057.44
2023-01-01T18:06:17.718Z,100056.97
2023-01-01T18:08:46.033Z,100050.72
2023-01-01T18:11:12.999Z,100046.91
2023-01-01T18:13:40.127Z,100046.41
2023-01-01T18:16:09.267Z,100044.00
2023-01-01T18:18:37.669Z,100049.63
2023-01-01T18:21:05.878Z,100044.34
2023-01-01T18:23:33.197Z,100044.66
2023-01-01T18:26:02.600Z,100033.63
2023-01-01T18:28:29.858Z,100042.09
2023-01-01T18:31:04.843Z,100039.84
2023-01-01T18:33:32.239Z,100048.50
2023-01-01T18:36:03.245Z,100044.50
2023-01-01T18:38:30.271Z,100044.00
2023-01-01T18:41:18.007Z,100048.66
2023-01-01T18:43:45.012Z,100041.94
2023-01-01T18:46:12.098Z,100039.53
2023-01-01T18:48:39.271Z,100043.06
2023-01-01T18:51:15.350Z,100042.41
2023-01-01T18:53:42.389Z,100040.81
2023-01-01T18:56:12.803Z,100040.16
2023-01-01T18:58:41.354Z,100036.78
2023-01-01T19:01:14.968Z,100041.25
2023-01-01T19:03:42.377Z,100041.25
2023-01-01T19:06:24.360Z,100035.31
2023-01-01T19:08:51.817Z,100034.19
2023-01-01T19:11:21.666Z,100043.91
2023-01-01T19:13:49.922Z,100046.75
2023-01-01T19:16:24.320Z,100046.75
2023-01-01T19:18:52.925Z,100044.81
2023-01-01T19:21:23.058Z,100043.66
2023-01-01T19:23:51.942Z,100048.94
2023-01-01T19:26:25.020Z,100047.63
2023-01-01T19:28:54.609Z,100046.81
2023-01-01T19:31:22.098Z,100049.81
2023-01-01T19:33:49.595Z,100045.28
2023-01-01T19:36:16.656Z,100047.53
2023-01-01T19:38:44.177Z,100053.19
2023-01-01T19:41:11.655Z,100056.38
2023-01-01T19:43:39.997Z,100045.78
2023-01-01T19:46:06.972Z,100044.97
2023-01-01T19:48:34.935Z,100053.28
2023-01-01T19:51:01.989Z,100057.09
2023-01-01T19:53:28.988Z,100060.56
2023-01-01T19:55:56.036Z,100057.22
2023-01-01T19:58:23.212Z,100055.91
2023-01-01T20:00:52.875Z,100051.41
2023-01-01T20:03:52.137Z,100059.81
2023-01-01T20:06:08.395Z,100058.81
2023-01-01T20:08:38.235Z,100061.78
2023-01-01T20:11:06.459Z,100058.91
2023-01-01T20:13:33.962Z,100061.06
2023-01-01T20:16:03.041Z,100056.13
2023-01-01T20:18:30.231Z,100048.13
2023-01-01T20:21:19.203Z,100052.56
2023-01-01T20:23:50.674Z,100055.53
2023-01-01T20:26:17.607Z,100050.75
2023-01-01T20:29:03.015Z,100051.81
2023-01-01T20:31:31.414Z,100047.97
2023-01-01T20:33:58.450Z,100060.22
2023-01-01T20:36:43.603Z,100063.84
2023-01-01T20:39:10.545Z,100063.34
2023-01-01T20:41:37.543Z,100066.06
2023-01-01T20:44:04.620Z,100061.09
2023-01-01T20:46:36.159Z,100057.59
2023-01-01T20:49:03.993Z,100061.91
2023-01-01T20:51:30.963Z,100051.16
2023-01-01T20:53:57.901Z,100060.88
2023-01-01T20:56:24.837Z,100056.84
2023-01-01T20:59:00.066Z,100051.88
2023-01-01T21:01:31.928Z,100057.94
2023-01-01T21:04:00.503Z,100060.00
2023-01-01T21:06:27.481Z,100057.06
2023-01-01T21:08:55.539Z,100053.88
2023-01-01T21:11:22.603Z,100069.47
2023-01-01T21:13:49.954Z,100062.22
2023-01-01T21:16:19.315Z,100059.16
2023-01-01T21:18:47.703Z,100059.75
2023-01-01T21:21:19.262Z,100059.63
2023-01-01T21:23:46.728Z,100061.69
2023-01-01T21:26:16.299Z,100056.19
2023-01-01T21:28:44.332Z,100060.78
2023-01-01T21:31:13.636Z,100056.91
2023-01-01T21:33:42.032Z,100055.75
2023-01-01T21:36:16.078Z,100053.59
2023-01-01T21:38:45.757Z,100046.50
2023-01-01T21:41:16.750Z,100052.56
2023-01-01T21:43:45.527Z,100052.16
2023-01-01T21:46:33.684Z,100052.44
2023-01-01T21:49:04.264Z,100059.84
2023-01-01T21:51:33.688Z,100051.84
2023-01-01T21:54:16.676Z,100048.75
2023-01-01T21:56:50.122Z,100053.97
2023-01-01T21:59:28.363Z,100046.34
2023-01-01T22:02:15.415Z,100048.50
2023-01-01T22:04:45.298Z,100041.28
2023-01-01T22:10:14.494Z,100050.97
2023-01-01T22:12:41.785Z,100049.50
2023-01-01T22:15:31.020Z,100052.59
2023-01-01T22:18:14.383Z,100044.53
2023-01-01T22:20:43.175Z,100047.22
2023-01-01T22:23:22.587Z,100043.19
2023-01-01T22:25:51.699Z,100045.59
2023-01-01T22:28:22.987Z,100037.03
2023-01-01T22:30:54.051Z,100040.50
2023-01-01T22:33:26.009Z,100039.44
2023-01-01T22:35:54.741Z,100043.72
2023-01-01T22:38:24.053Z,100037.31
2023-01-01T22:40:52.435Z,100028.75
2023-01-01T22:43:26.853Z,100032.25
2023-01-01T22:45:54.186Z,100037.47
2023-01-01T22:48:23.780Z,100031.44
2023-01-01T22:50:52.542Z,100034.66
2023-01-01T22:53:19.833Z,100027.00
2023-01-01T22:55:46.894Z,100023.66
2023-01-01T22:58:15.219Z,100023.66
2023-01-01T23:00:42.307Z,100032.09
2023-01-01T23:03:09.406Z,100022.84
2023-01-01T23:05:36.813Z,100023.09
2023-01-01T23:08:03.905Z,100031.00
2023-01-01T23:10:31.784Z,100032.22
2023-01-01T23:13:18.845Z,100026.50
2023-01-01T23:16:02.677Z,100025.00
2023-01-01T23:18:31.881Z,100029.97
2023-01-01T23:21:00.272Z,100031.31
2023-01-01T23:23:28.809Z,100025.53
2023-01-01T23:25:56.457Z,100027.44
2023-01-01T23:28:24.275Z,100037.19
2023-01-01T23:30:53.135Z,100036.81
2023-01-01T23:33:21.087Z,100031.97
2023-01-01T23:35:48.869Z,100022.75
2023-01-01T23:38:16.296Z,100028.78
2023-01-01T23:40:43.263Z,100025.56
2023-01-01T23:43:10.203Z,100027.16
2023-01-01T23:45:37.623Z,100026.50
2023-01-01T23:48:07.220Z,100015.25
2023-01-01T23:50:34.764Z,100022.47
2023-01-01T23:53:01.954Z,100016.72
2023-01-01T23:55:28.899Z,100006.13
2023-01-01T23:57:55.816Z,100005.50
